sensor_id;sensor_type;location;lat;lon;timestamp;P1;durP1;ratioP1;P2;durP2;ratioP2
17510;SDS011;8873;48.818;9.422;2023-01-29T00:01:37;12.20;;;6.83;;
17510;SDS011;8873;48.818;9.422;2023-01-29T00:04:05;13.23;;;7.40;;
17510;SDS011;8873;48.818;9.422;2023-01-29T00:06:33;13.33;;;7.30;;
17510;SDS011;8873;48.818;9.422;2023-01-29T00:09:00;12.90;;;6.50;;
17510;SDS011;8873;48.818;9.422;2023-01-29T00:11:30;13.27;;;6.80;;
17510;SDS011;8873;48.818;9.422;2023-01-29T00:13:57;13.27;;;6.87;;
17510;SDS011;8873;48.818;9.422;2023-01-29T00:16:25;12.50;;;7.07;;
17510;SDS011;8873;48.818;9.422;2023-01-29T00:18:52;13.50;;;6.83;;
17510;SDS011;8873;48.818;9.422;2023-01-29T00:21:20;12.83;;;6.60;;
17510;SDS011;8873;48.818;9.422;2023-01-29T00:23:48;11.60;;;6.90;;
17510;SDS011;8873;48.818;9.422;2023-01-29T00:26:16;12.20;;;7.00;;
17510;SDS011;8873;48.818;9.422;2023-01-29T00:28:59;11.27;;;6.53;;
17510;SDS011;8873;48.818;9.422;2023-01-29T00:31:27;10.87;;;6.60;;
17510;SDS011;8873;48.818;9.422;2023-01-29T00:33:55;11.10;;;7.03;;
17510;SDS011;8873;48.818;9.422;2023-01-29T00:36:23;14.03;;;6.87;;
17510;SDS011;8873;48.818;9.422;2023-01-29T00:38:54;13.63;;;7.13;;
17510;SDS011;8873;48.818;9.422;2023-01-29T00:41:25;8.77;;;5.90;;
17510;SDS011;8873;48.818;9.422;2023-01-29T00:44:14;10.20;;;6.13;;
17510;SDS011;8873;48.818;9.422;2023-01-29T00:46:59;9.27;;;5.67;;
17510;SDS011;8873;48.818;9.422;2023-01-29T00:49:27;13.13;;;6.30;;
17510;SDS011;8873;48.818;9.422;2023-01-29T00:51:55;10.07;;;5.93;;
17510;SDS011;8873;48.818;9.422;2023-01-29T00:54:40;11.53;;;6.07;;
17510;SDS011;8873;48.818;9.422;2023-01-29T00:57:08;11.73;;;6.67;;
17510;SDS011;8873;48.818;9.422;2023-01-29T00:59:37;10.70;;;6.23;;
17510;SDS011;8873;48.818;9.422;2023-01-29T01:02:04;11.20;;;6.70;;
17510;SDS011;8873;48.818;9.422;2023-01-29T01:04:49;9.07;;;5.70;;
17510;SDS011;8873;48.818;9.422;2023-01-29T01:07:17;9.60;;;5.93;;
17510;SDS011;8873;48.818;9.422;2023-01-29T01:09:44;12.03;;;6.47;;
17510;SDS011;8873;48.818;9.422;2023-01-29T01:12:30;12.07;;;7.00;;
17510;SDS011;8873;48.818;9.422;2023-01-29T01:14:59;10.50;;;6.20;;
17510;SDS011;8873;48.818;9.422;2023-01-29T01:17:27;9.13;;;6.20;;
17510;SDS011;8873;48.818;9.422;2023-01-29T01:19:54;9.90;;;6.27;;
17510;SDS011;8873;48.818;9.422;2023-01-29T01:22:22;11.53;;;6.50;;
17510;SDS011;8873;48.818;9.422;2023-01-29T01:24:50;10.73;;;6.27;;
17510;SDS011;8873;48.818;9.422;2023-01-29T01:27:17;13.83;;;7.00;;
17510;SDS011;8873;48.818;9.422;2023-01-29T01:29:45;11.97;;;6.70;;
17510;SDS011;8873;48.818;9.422;2023-01-29T01:32:14;14.17;;;6.83;;
17510;SDS011;8873;48.818;9.422;2023-01-29T01:34:42;10.33;;;6.43;;
17510;SDS011;8873;48.818;9.422;2023-01-29T01:37:10;11.43;;;6.40;;
17510;SDS011;8873;48.818;9.422;2023-01-29T01:39:37;11.43;;;6.50;;
17510;SDS011;8873;48.818;9.422;2023-01-29T01:42:05;10.97;;;6.77;;
17510;SDS011;8873;48.818;9.422;2023-01-29T01:44:50;9.90;;;6.03;;
17510;SDS011;8873;48.818;9.422;2023-01-29T01:47:21;9.90;;;5.90;;
17510;SDS011;8873;48.818;9.422;2023-01-29T01:49:50;11.77;;;6.70;;
17510;SDS011;8873;48.818;9.422;2023-01-29T01:52:17;12.13;;;6.87;;
17510;SDS011;8873;48.818;9.422;2023-01-29T01:54:45;10.70;;;6.33;;
17510;SDS011;8873;48.818;9.422;2023-01-29T01:57:14;9.33;;;6.13;;
17510;SDS011;8873;48.818;9.422;2023-01-29T01:59:45;9.40;;;6.10;;
17510;SDS011;8873;48.818;9.422;2023-01-29T02:02:15;10.73;;;6.60;;
17510;SDS011;8873;48.818;9.422;2023-01-29T02:05:02;12.53;;;6.27;;
17510;SDS011;8873;48.818;9.422;2023-01-29T02:07:48;12.23;;;6.40;;
17510;SDS011;8873;48.818;9.422;2023-01-29T02:10:34;9.03;;;5.67;;
17510;SDS011;8873;48.818;9.422;2023-01-29T02:13:03;12.13;;;6.83;;
17510;SDS011;8873;48.818;9.422;2023-01-29T02:15:31;11.93;;;6.30;;
17510;SDS011;8873;48.818;9.422;2023-01-29T02:17:58;10.50;;;7.07;;
17510;SDS011;8873;48.818;9.422;2023-01-29T02:20:28;11.00;;;6.53;;
17510;SDS011;8873;48.818;9.422;2023-01-29T02:23:02;12.67;;;6.60;;
17510;SDS011;8873;48.818;9.422;2023-01-29T02:25:38;13.63;;;6.73;;
17510;SDS011;8873;48.818;9.422;2023-01-29T02:28:19;11.70;;;7.33;;
17510;SDS011;8873;48.818;9.422;2023-01-29T02:30:52;11.57;;;6.77;;
17510;SDS011;8873;48.818;9.422;2023-01-29T02:33:25;12.47;;;6.87;;
17510;SDS011;8873;48.818;9.422;2023-01-29T02:35:58;11.50;;;6.93;;
17510;SDS011;8873;48.818;9.422;2023-01-29T02:38:34;11.73;;;6.60;;
17510;SDS011;8873;48.818;9.422;2023-01-29T02:41:04;9.87;;;6.33;;
17510;SDS011;8873;48.818;9.422;2023-01-29T02:43:36;9.53;;;6.37;;
17510;SDS011;8873;48.818;9.422;2023-01-29T02:46:09;14.17;;;6.83;;
17510;SDS011;8873;48.818;9.422;2023-01-29T02:48:39;14.27;;;6.77;;
17510;SDS011;8873;48.818;9.422;2023-01-29T02:51:09;13.70;;;6.60;;
17510;SDS011;8873;48.818;9.422;2023-01-29T02:53:39;11.70;;;6.70;;
17510;SDS011;8873;48.818;9.422;2023-01-29T02:56:08;13.27;;;6.90;;
17510;SDS011;8873;48.818;9.422;2023-01-29T02:58:38;10.20;;;6.67;;
17510;SDS011;8873;48.818;9.422;2023-01-29T03:01:08;12.43;;;6.90;;
17510;SDS011;8873;48.818;9.422;2023-01-29T03:03:38;13.20;;;7.13;;
17510;SDS011;8873;48.818;9.422;2023-01-29T03:06:07;13.03;;;7.40;;
17510;SDS011;8873;48.818;9.422;2023-01-29T03:08:39;12.13;;;7.03;;
17510;SDS011;8873;48.818;9.422;2023-01-29T03:11:11;11.93;;;6.53;;
17510;SDS011;8873;48.818;9.422;2023-01-29T03:13:42;10.57;;;7.10;;
17510;SDS011;8873;48.818;9.422;2023-01-29T03:16:13;18.40;;;7.93;;
17510;SDS011;8873;48.818;9.422;2023-01-29T03:18:45;15.23;;;7.00;;
17510;SDS011;8873;48.818;9.422;2023-01-29T03:21:17;13.07;;;7.20;;
17510;SDS011;8873;48.818;9.422;2023-01-29T03:24:03;23.10;;;10.80;;
17510;SDS011;8873;48.818;9.422;2023-01-29T03:26:49;17.63;;;8.97;;
17510;SDS011;8873;48.818;9.422;2023-01-29T03:29:36;17.40;;;8.00;;
17510;SDS011;8873;48.818;9.422;2023-01-29T03:32:22;20.13;;;8.63;;
17510;SDS011;8873;48.818;9.422;2023-01-29T03:34:53;14.60;;;7.63;;
17510;SDS011;8873;48.818;9.422;2023-01-29T03:37:23;11.93;;;7.10;;
17510;SDS011;8873;48.818;9.422;2023-01-29T03:39:52;12.13;;;6.73;;
17510;SDS011;8873;48.818;9.422;2023-01-29T03:42:21;13.27;;;6.87;;
17510;SDS011;8873;48.818;9.422;2023-01-29T03:44:53;16.40;;;7.20;;
17510;SDS011;8873;48.818;9.422;2023-01-29T03:47:24;14.00;;;7.43;;
17510;SDS011;8873;48.818;9.422;2023-01-29T03:49:55;10.43;;;6.53;;
17510;SDS011;8873;48.818;9.422;2023-01-29T03:52:24;11.07;;;6.47;;
17510;SDS011;8873;48.818;9.422;2023-01-29T03:54:53;14.27;;;7.53;;
17510;SDS011;8873;48.818;9.422;2023-01-29T03:57:27;12.43;;;7.43;;
17510;SDS011;8873;48.818;9.422;2023-01-29T04:00:00;13.20;;;6.67;;
17510;SDS011;8873;48.818;9.422;2023-01-29T04:02:30;11.83;;;7.17;;
17510;SDS011;8873;48.818;9.422;2023-01-29T04:05:03;16.10;;;7.57;;
17510;SDS011;8873;48.818;9.422;2023-01-29T04:07:32;10.63;;;6.43;;
17510;SDS011;8873;48.818;9.422;2023-01-29T04:10:02;12.70;;;7.13;;
17510;SDS011;8873;48.818;9.422;2023-01-29T04:12:32;13.83;;;6.63;;
17510;SDS011;8873;48.818;9.422;2023-01-29T04:15:04;12.97;;;7.17;;
17510;SDS011;8873;48.818;9.422;2023-01-29T04:17:33;12.07;;;6.90;;
17510;SDS011;8873;48.818;9.422;2023-01-29T04:20:03;10.30;;;6.73;;
17510;SDS011;8873;48.818;9.422;2023-01-29T04:22:31;12.33;;;7.00;;
17510;SDS011;8873;48.818;9.422;2023-01-29T04:24:59;12.03;;;7.30;;
17510;SDS011;8873;48.818;9.422;2023-01-29T04:27:36;14.33;;;7.50;;
17510;SDS011;8873;48.818;9.422;2023-01-29T04:30:11;12.67;;;6.80;;
17510;SDS011;8873;48.818;9.422;2023-01-29T04:32:47;11.87;;;6.80;;
17510;SDS011;8873;48.818;9.422;2023-01-29T04:35:23;12.97;;;6.87;;
17510;SDS011;8873;48.818;9.422;2023-01-29T04:37:55;14.37;;;7.30;;
17510;SDS011;8873;48.818;9.422;2023-01-29T04:40:28;11.23;;;7.00;;
17510;SDS011;8873;48.818;9.422;2023-01-29T04:43:00;15.93;;;7.80;;
17510;SDS011;8873;48.818;9.422;2023-01-29T04:45:33;14.27;;;7.10;;
17510;SDS011;8873;48.818;9.422;2023-01-29T04:48:13;11.00;;;6.90;;
17510;SDS011;8873;48.818;9.422;2023-01-29T04:50:43;14.27;;;7.47;;
17510;SDS011;8873;48.818;9.422;2023-01-29T04:53:14;12.83;;;7.07;;
17510;SDS011;8873;48.818;9.422;2023-01-29T04:55:44;10.03;;;6.57;;
17510;SDS011;8873;48.818;9.422;2023-01-29T04:58:14;11.57;;;6.97;;
17510;SDS011;8873;48.818;9.422;2023-01-29T05:00:47;11.23;;;7.03;;
17510;SDS011;8873;48.818;9.422;2023-01-29T05:03:15;10.90;;;6.67;;
17510;SDS011;8873;48.818;9.422;2023-01-29T05:05:44;14.13;;;7.60;;
17510;SDS011;8873;48.818;9.422;2023-01-29T05:08:13;11.67;;;7.00;;
17510;SDS011;8873;48.818;9.422;2023-01-29T05:10:42;11.30;;;6.77;;
17510;SDS011;8873;48.818;9.422;2023-01-29T05:13:10;12.93;;;7.37;;
17510;SDS011;8873;48.818;9.422;2023-01-29T05:15:40;14.70;;;7.90;;
17510;SDS011;8873;48.818;9.422;2023-01-29T05:18:11;14.83;;;7.57;;
17510;SDS011;8873;48.818;9.422;2023-01-29T05:20:39;15.03;;;7.73;;
17510;SDS011;8873;48.818;9.422;2023-01-29T05:23:08;13.77;;;7.80;;
17510;SDS011;8873;48.818;9.422;2023-01-29T05:25:36;13.90;;;7.20;;
17510;SDS011;8873;48.818;9.422;2023-01-29T05:28:04;11.70;;;7.03;;
17510;SDS011;8873;48.818;9.422;2023-01-29T05:30:31;13.23;;;7.23;;
17510;SDS011;8873;48.818;9.422;2023-01-29T05:32:59;13.43;;;6.93;;
17510;SDS011;8873;48.818;9.422;2023-01-29T05:35:28;15.40;;;7.17;;
17510;SDS011;8873;48.818;9.422;2023-01-29T05:37:55;15.50;;;7.77;;
17510;SDS011;8873;48.818;9.422;2023-01-29T05:40:23;15.60;;;7.67;;
17510;SDS011;8873;48.818;9.422;2023-01-29T05:42:51;13.37;;;7.27;;
17510;SDS011;8873;48.818;9.422;2023-01-29T05:45:19;14.90;;;7.47;;
17510;SDS011;8873;48.818;9.422;2023-01-29T05:47:46;15.67;;;7.40;;
17510;SDS011;8873;48.818;9.422;2023-01-29T05:50:14;13.97;;;7.77;;
17510;SDS011;8873;48.818;9.422;2023-01-29T05:52:43;13.83;;;7.33;;
17510;SDS011;8873;48.818;9.422;2023-01-29T05:55:11;16.50;;;7.63;;
17510;SDS011;8873;48.818;9.422;2023-01-29T05:57:39;13.77;;;7.90;;
17510;SDS011;8873;48.818;9.422;2023-01-29T06:00:07;13.27;;;7.37;;
17510;SDS011;8873;48.818;9.422;2023-01-29T06:02:34;13.70;;;7.57;;
17510;SDS011;8873;48.818;9.422;2023-01-29T06:05:02;14.07;;;7.33;;
17510;SDS011;8873;48.818;9.422;2023-01-29T06:07:29;15.97;;;7.80;;
17510;SDS011;8873;48.818;9.422;2023-01-29T06:09:58;13.07;;;7.20;;
17510;SDS011;8873;48.818;9.422;2023-01-29T06:12:26;11.43;;;7.20;;
17510;SDS011;8873;48.818;9.422;2023-01-29T06:14:53;14.50;;;8.03;;
17510;SDS011;8873;48.818;9.422;2023-01-29T06:17:21;14.17;;;8.17;;
17510;SDS011;8873;48.818;9.422;2023-01-29T06:19:48;16.90;;;7.37;;
17510;SDS011;8873;48.818;9.422;2023-01-29T06:22:16;17.47;;;8.27;;
17510;SDS011;8873;48.818;9.422;2023-01-29T06:24:43;14.47;;;7.13;;
17510;SDS011;8873;48.818;9.422;2023-01-29T06:27:12;18.87;;;8.03;;
17510;SDS011;8873;48.818;9.422;2023-01-29T06:29:40;15.73;;;7.83;;
17510;SDS011;8873;48.818;9.422;2023-01-29T06:32:07;14.37;;;7.73;;
17510;SDS011;8873;48.818;9.422;2023-01-29T06:34:35;12.93;;;7.83;;
17510;SDS011;8873;48.818;9.422;2023-01-29T06:37:04;13.80;;;7.20;;
17510;SDS011;8873;48.818;9.422;2023-01-29T06:39:33;14.67;;;8.40;;
17510;SDS011;8873;48.818;9.422;2023-01-29T06:42:00;13.17;;;7.37;;
17510;SDS011;8873;48.818;9.422;2023-01-29T06:44:29;14.60;;;7.97;;
17510;SDS011;8873;48.818;9.422;2023-01-29T06:46:57;13.23;;;7.97;;
17510;SDS011;8873;48.818;9.422;2023-01-29T06:49:24;14.50;;;8.17;;
17510;SDS011;8873;48.818;9.422;2023-01-29T06:51:51;14.20;;;7.77;;
17510;SDS011;8873;48.818;9.422;2023-01-29T06:54:19;14.53;;;7.97;;
17510;SDS011;8873;48.818;9.422;2023-01-29T06:56:46;13.67;;;8.27;;
17510;SDS011;8873;48.818;9.422;2023-01-29T06:59:14;18.07;;;8.23;;
17510;SDS011;8873;48.818;9.422;2023-01-29T07:01:42;14.13;;;7.80;;
17510;SDS011;8873;48.818;9.422;2023-01-29T07:04:10;14.53;;;8.03;;
17510;SDS011;8873;48.818;9.422;2023-01-29T07:06:38;15.10;;;8.00;;
17510;SDS011;8873;48.818;9.422;2023-01-29T07:09:06;16.83;;;8.43;;
17510;SDS011;8873;48.818;9.422;2023-01-29T07:11:33;14.80;;;7.87;;
17510;SDS011;8873;48.818;9.422;2023-01-29T07:14:02;14.40;;;7.83;;
17510;SDS011;8873;48.818;9.422;2023-01-29T07:16:30;15.80;;;8.47;;
17510;SDS011;8873;48.818;9.422;2023-01-29T07:18:59;12.70;;;7.83;;
17510;SDS011;8873;48.818;9.422;2023-01-29T07:21:27;14.10;;;7.83;;
17510;SDS011;8873;48.818;9.422;2023-01-29T07:23:54;14.90;;;8.33;;
17510;SDS011;8873;48.818;9.422;2023-01-29T07:26:22;21.30;;;8.50;;
17510;SDS011;8873;48.818;9.422;2023-01-29T07:28:50;15.40;;;8.50;;
17510;SDS011;8873;48.818;9.422;2023-01-29T07:31:19;15.73;;;7.60;;
17510;SDS011;8873;48.818;9.422;2023-01-29T07:33:48;16.23;;;7.73;;
17510;SDS011;8873;48.818;9.422;2023-01-29T07:36:16;17.03;;;8.63;;
17510;SDS011;8873;48.818;9.422;2023-01-29T07:38:47;18.67;;;9.13;;
17510;SDS011;8873;48.818;9.422;2023-01-29T07:41:15;16.97;;;8.73;;
17510;SDS011;8873;48.818;9.422;2023-01-29T07:43:42;20.03;;;9.07;;
17510;SDS011;8873;48.818;9.422;2023-01-29T07:46:10;18.87;;;8.53;;
17510;SDS011;8873;48.818;9.422;2023-01-29T07:48:37;25.73;;;10.30;;
17510;SDS011;8873;48.818;9.422;2023-01-29T07:51:05;24.43;;;10.90;;
17510;SDS011;8873;48.818;9.422;2023-01-29T07:53:34;19.00;;;9.50;;
17510;SDS011;8873;48.818;9.422;2023-01-29T07:56:02;18.30;;;9.97;;
17510;SDS011;8873;48.818;9.422;2023-01-29T07:58:30;19.77;;;9.97;;
17510;SDS011;8873;48.818;9.422;2023-01-29T08:00:59;16.80;;;8.53;;
17510;SDS011;8873;48.818;9.422;2023-01-29T08:03:30;18.67;;;9.00;;
17510;SDS011;8873;48.818;9.422;2023-01-29T08:05:58;17.77;;;8.57;;
17510;SDS011;8873;48.818;9.422;2023-01-29T08:08:25;18.10;;;9.63;;
17510;SDS011;8873;48.818;9.422;2023-01-29T08:10:54;20.13;;;9.37;;
17510;SDS011;8873;48.818;9.422;2023-01-29T08:13:22;15.23;;;8.73;;
17510;SDS011;8873;48.818;9.422;2023-01-29T08:15:49;18.73;;;10.67;;
17510;SDS011;8873;48.818;9.422;2023-01-29T08:18:17;21.17;;;10.70;;
17510;SDS011;8873;48.818;9.422;2023-01-29T08:20:44;19.43;;;8.93;;
17510;SDS011;8873;48.818;9.422;2023-01-29T08:23:13;15.93;;;9.43;;
17510;SDS011;8873;48.818;9.422;2023-01-29T08:25:40;20.27;;;10.13;;
17510;SDS011;8873;48.818;9.422;2023-01-29T08:28:10;26.07;;;11.27;;
17510;SDS011;8873;48.818;9.422;2023-01-29T08:30:37;19.90;;;10.23;;
17510;SDS011;8873;48.818;9.422;2023-01-29T08:33:05;23.07;;;11.43;;
17510;SDS011;8873;48.818;9.422;2023-01-29T08:35:33;21.53;;;9.60;;
17510;SDS011;8873;48.818;9.422;2023-01-29T08:38:01;25.87;;;12.30;;
17510;SDS011;8873;48.818;9.422;2023-01-29T08:40:30;21.80;;;9.73;;
17510;SDS011;8873;48.818;9.422;2023-01-29T08:42:57;25.67;;;11.30;;
17510;SDS011;8873;48.818;9.422;2023-01-29T08:45:31;22.97;;;11.37;;
17510;SDS011;8873;48.818;9.422;2023-01-29T08:47:59;20.77;;;10.30;;
17510;SDS011;8873;48.818;9.422;2023-01-29T08:50:27;23.23;;;9.70;;
17510;SDS011;8873;48.818;9.422;2023-01-29T08:52:56;16.37;;;9.63;;
17510;SDS011;8873;48.818;9.422;2023-01-29T08:55:24;18.73;;;9.70;;
17510;SDS011;8873;48.818;9.422;2023-01-29T08:57:51;22.43;;;10.00;;
17510;SDS011;8873;48.818;9.422;2023-01-29T09:00:19;17.53;;;8.40;;
17510;SDS011;8873;48.818;9.422;2023-01-29T09:02:48;12.97;;;7.90;;
17510;SDS011;8873;48.818;9.422;2023-01-29T09:05:16;16.57;;;8.37;;
17510;SDS011;8873;48.818;9.422;2023-01-29T09:07:44;15.60;;;8.57;;
17510;SDS011;8873;48.818;9.422;2023-01-29T09:10:11;19.97;;;8.57;;
17510;SDS011;8873;48.818;9.422;2023-01-29T09:12:39;18.40;;;9.00;;
17510;SDS011;8873;48.818;9.422;2023-01-29T09:15:07;16.70;;;8.43;;
17510;SDS011;8873;48.818;9.422;2023-01-29T09:17:35;18.93;;;9.30;;
17510;SDS011;8873;48.818;9.422;2023-01-29T09:20:04;14.23;;;8.27;;
17510;SDS011;8873;48.818;9.422;2023-01-29T09:22:32;16.77;;;8.67;;
17510;SDS011;8873;48.818;9.422;2023-01-29T09:25:00;13.70;;;7.80;;
17510;SDS011;8873;48.818;9.422;2023-01-29T09:27:27;18.47;;;9.80;;
17510;SDS011;8873;48.818;9.422;2023-01-29T09:29:55;13.00;;;7.43;;
17510;SDS011;8873;48.818;9.422;2023-01-29T09:32:22;20.67;;;8.97;;
17510;SDS011;8873;48.818;9.422;2023-01-29T09:35:11;16.77;;;8.50;;
17510;SDS011;8873;48.818;9.422;2023-01-29T09:37:39;17.73;;;7.83;;
17510;SDS011;8873;48.818;9.422;2023-01-29T09:40:07;16.50;;;8.37;;
17510;SDS011;8873;48.818;9.422;2023-01-29T09:42:39;11.83;;;7.93;;
17510;SDS011;8873;48.818;9.422;2023-01-29T09:45:09;17.30;;;8.10;;
17510;SDS011;8873;48.818;9.422;2023-01-29T09:47:41;13.20;;;6.80;;
17510;SDS011;8873;48.818;9.422;2023-01-29T09:50:13;17.23;;;8.13;;
17510;SDS011;8873;48.818;9.422;2023-01-29T09:52:46;16.30;;;8.10;;
17510;SDS011;8873;48.818;9.422;2023-01-29T09:55:17;16.87;;;7.83;;
17510;SDS011;8873;48.818;9.422;2023-01-29T09:57:49;13.67;;;8.10;;
17510;SDS011;8873;48.818;9.422;2023-01-29T10:00:19;15.17;;;10.00;;
17510;SDS011;8873;48.818;9.422;2023-01-29T10:02:55;13.00;;;7.73;;
17510;SDS011;8873;48.818;9.422;2023-01-29T10:05:29;10.77;;;6.87;;
17510;SDS011;8873;48.818;9.422;2023-01-29T10:10:46;9.53;;;6.10;;
17510;SDS011;8873;48.818;9.422;2023-01-29T10:13:18;11.20;;;6.97;;
17510;SDS011;8873;48.818;9.422;2023-01-29T10:15:55;9.17;;;6.23;;
17510;SDS011;8873;48.818;9.422;2023-01-29T10:18:28;9.87;;;6.40;;
17510;SDS011;8873;48.818;9.422;2023-01-29T10:21:03;8.87;;;6.33;;
17510;SDS011;8873;48.818;9.422;2023-01-29T10:23:33;10.40;;;7.03;;
17510;SDS011;8873;48.818;9.422;2023-01-29T10:26:02;13.37;;;6.93;;
17510;SDS011;8873;48.818;9.422;2023-01-29T10:28:30;10.97;;;7.47;;
17510;SDS011;8873;48.818;9.422;2023-01-29T10:31:01;15.60;;;7.67;;
17510;SDS011;8873;48.818;9.422;2023-01-29T10:33:31;17.53;;;8.43;;
17510;SDS011;8873;48.818;9.422;2023-01-29T10:36:22;13.37;;;8.03;;
17510;SDS011;8873;48.818;9.422;2023-01-29T10:38:52;13.60;;;7.80;;
17510;SDS011;8873;48.818;9.422;2023-01-29T10:44:13;13.80;;;7.53;;
17510;SDS011;8873;48.818;9.422;2023-01-29T10:46:48;13.43;;;8.20;;
17510;SDS011;8873;48.818;9.422;2023-01-29T10:49:20;12.00;;;7.27;;
17510;SDS011;8873;48.818;9.422;2023-01-29T10:51:59;12.47;;;7.70;;
17510;SDS011;8873;48.818;9.422;2023-01-29T10:54:36;13.23;;;7.87;;
17510;SDS011;8873;48.818;9.422;2023-01-29T10:57:09;14.47;;;7.67;;
17510;SDS011;8873;48.818;9.422;2023-01-29T10:59:44;15.77;;;7.97;;
17510;SDS011;8873;48.818;9.422;2023-01-29T11:02:15;18.67;;;9.67;;
17510;SDS011;8873;48.818;9.422;2023-01-29T11:04:44;16.63;;;9.13;;
17510;SDS011;8873;48.818;9.422;2023-01-29T11:07:14;13.67;;;8.63;;
17510;SDS011;8873;48.818;9.422;2023-01-29T11:09:45;13.93;;;8.20;;
17510;SDS011;8873;48.818;9.422;2023-01-29T11:12:17;13.90;;;8.13;;
17510;SDS011;8873;48.818;9.422;2023-01-29T11:14:49;20.13;;;9.53;;
17510;SDS011;8873;48.818;9.422;2023-01-29T11:17:19;17.80;;;9.40;;
17510;SDS011;8873;48.818;9.422;2023-01-29T11:19:47;18.70;;;8.63;;
17510;SDS011;8873;48.818;9.422;2023-01-29T11:22:18;13.10;;;8.03;;
17510;SDS011;8873;48.818;9.422;2023-01-29T11:24:46;15.57;;;8.00;;
17510;SDS011;8873;48.818;9.422;2023-01-29T11:27:33;21.30;;;8.17;;
17510;SDS011;8873;48.818;9.422;2023-01-29T11:30:01;13.10;;;7.73;;
17510;SDS011;8873;48.818;9.422;2023-01-29T11:32:31;13.30;;;8.30;;
17510;SDS011;8873;48.818;9.422;2023-01-29T11:35:00;14.73;;;8.87;;
17510;SDS011;8873;48.818;9.422;2023-01-29T11:37:33;13.83;;;8.63;;
17510;SDS011;8873;48.818;9.422;2023-01-29T11:40:01;16.33;;;8.47;;
17510;SDS011;8873;48.818;9.422;2023-01-29T11:42:48;15.87;;;9.67;;
17510;SDS011;8873;48.818;9.422;2023-01-29T11:45:23;16.20;;;9.63;;
17510;SDS011;8873;48.818;9.422;2023-01-29T11:47:56;16.10;;;8.93;;
17510;SDS011;8873;48.818;9.422;2023-01-29T11:50:25;15.27;;;9.10;;
17510;SDS011;8873;48.818;9.422;2023-01-29T11:52:55;16.10;;;9.30;;
17510;SDS011;8873;48.818;9.422;2023-01-29T11:55:24;17.60;;;9.57;;
17510;SDS011;8873;48.818;9.422;2023-01-29T11:57:56;16.17;;;9.23;;
17510;SDS011;8873;48.818;9.422;2023-01-29T12:00:27;14.37;;;8.63;;
17510;SDS011;8873;48.818;9.422;2023-01-29T12:02:56;15.33;;;8.73;;
17510;SDS011;8873;48.818;9.422;2023-01-29T12:05:26;14.63;;;8.60;;
17510;SDS011;8873;48.818;9.422;2023-01-29T12:07:54;16.77;;;8.93;;
17510;SDS011;8873;48.818;9.422;2023-01-29T12:10:36;15.37;;;8.33;;
17510;SDS011;8873;48.818;9.422;2023-01-29T12:13:05;14.47;;;8.47;;
17510;SDS011;8873;48.818;9.422;2023-01-29T12:15:33;17.37;;;9.03;;
17510;SDS011;8873;48.818;9.422;2023-01-29T12:18:02;14.50;;;8.77;;
17510;SDS011;8873;48.818;9.422;2023-01-29T12:20:34;18.70;;;8.73;;
17510;SDS011;8873;48.818;9.422;2023-01-29T12:23:05;14.13;;;8.93;;
17510;SDS011;8873;48.818;9.422;2023-01-29T12:25:41;11.63;;;8.07;;
17510;SDS011;8873;48.818;9.422;2023-01-29T12:28:16;16.23;;;8.77;;
17510;SDS011;8873;48.818;9.422;2023-01-29T12:30:47;15.13;;;8.87;;
17510;SDS011;8873;48.818;9.422;2023-01-29T12:33:21;17.87;;;9.23;;
17510;SDS011;8873;48.818;9.422;2023-01-29T12:35:52;16.87;;;9.10;;
17510;SDS011;8873;48.818;9.422;2023-01-29T12:38:21;13.33;;;8.27;;
17510;SDS011;8873;48.818;9.422;2023-01-29T12:40:51;14.00;;;9.03;;
17510;SDS011;8873;48.818;9.422;2023-01-29T12:43:21;17.70;;;9.27;;
17510;SDS011;8873;48.818;9.422;2023-01-29T12:45:51;15.17;;;8.83;;
17510;SDS011;8873;48.818;9.422;2023-01-29T12:48:21;15.73;;;9.07;;
17510;SDS011;8873;48.818;9.422;2023-01-29T12:50:49;15.07;;;9.30;;
17510;SDS011;8873;48.818;9.422;2023-01-29T12:53:22;16.47;;;9.53;;
17510;SDS011;8873;48.818;9.422;2023-01-29T12:55:54;17.33;;;9.90;;
17510;SDS011;8873;48.818;9.422;2023-01-29T12:58:24;14.32;;;9.05;;
17510;SDS011;8873;48.818;9.422;2023-01-29T13:00:55;16.75;;;9.70;;
17510;SDS011;8873;48.818;9.422;2023-01-29T13:03:23;19.08;;;9.73;;
17510;SDS011;8873;48.818;9.422;2023-01-29T13:05:53;16.23;;;9.40;;
17510;SDS011;8873;48.818;9.422;2023-01-29T13:08:22;15.20;;;9.17;;
17510;SDS011;8873;48.818;9.422;2023-01-29T13:10:53;17.60;;;8.93;;
17510;SDS011;8873;48.818;9.422;2023-01-29T13:13:23;14.65;;;8.93;;
17510;SDS011;8873;48.818;9.422;2023-01-29T13:15:52;18.40;;;8.43;;
17510;SDS011;8873;48.818;9.422;2023-01-29T13:18:31;20.50;;;9.10;;
17510;SDS011;8873;48.818;9.422;2023-01-29T13:20:59;14.32;;;8.65;;
17510;SDS011;8873;48.818;9.422;2023-01-29T13:23:28;21.40;;;8.30;;
17510;SDS011;8873;48.818;9.422;2023-01-29T13:25:58;16.30;;;8.40;;
17510;SDS011;8873;48.818;9.422;2023-01-29T13:28:26;14.77;;;7.73;;
17510;SDS011;8873;48.818;9.422;2023-01-29T13:33:39;15.20;;;8.27;;
17510;SDS011;8873;48.818;9.422;2023-01-29T13:36:10;17.20;;;9.43;;
17510;SDS011;8873;48.818;9.422;2023-01-29T13:38:41;13.25;;;7.95;;
17510;SDS011;8873;48.818;9.422;2023-01-29T13:41:11;14.90;;;8.13;;
17510;SDS011;8873;48.818;9.422;2023-01-29T13:43:40;13.52;;;7.78;;
17510;SDS011;8873;48.818;9.422;2023-01-29T13:46:09;13.70;;;8.52;;
17510;SDS011;8873;48.818;9.422;2023-01-29T13:48:40;14.68;;;8.02;;
17510;SDS011;8873;48.818;9.422;2023-01-29T13:51:09;16.27;;;8.90;;
17510;SDS011;8873;48.818;9.422;2023-01-29T13:53:41;13.88;;;7.90;;
17510;SDS011;8873;48.818;9.422;2023-01-29T13:58:56;15.70;;;8.55;;
17510;SDS011;8873;48.818;9.422;2023-01-29T14:04:19;14.52;;;7.78;;
17510;SDS011;8873;48.818;9.422;2023-01-29T14:06:50;13.60;;;8.15;;
17510;SDS011;8873;48.818;9.422;2023-01-29T14:12:09;14.15;;;8.93;;
17510;SDS011;8873;48.818;9.422;2023-01-29T14:15:02;16.03;;;7.97;;
17510;SDS011;8873;48.818;9.422;2023-01-29T14:17:31;16.15;;;7.60;;
17510;SDS011;8873;48.818;9.422;2023-01-29T14:20:00;15.87;;;8.53;;
17510;SDS011;8873;48.818;9.422;2023-01-29T14:22:29;16.63;;;9.20;;
17510;SDS011;8873;48.818;9.422;2023-01-29T14:25:00;15.90;;;8.70;;
17510;SDS011;8873;48.818;9.422;2023-01-29T14:27:29;19.10;;;10.40;;
17510;SDS011;8873;48.818;9.422;2023-01-29T14:29:58;18.10;;;10.33;;
17510;SDS011;8873;48.818;9.422;2023-01-29T14:32:27;19.80;;;9.57;;
17510;SDS011;8873;48.818;9.422;2023-01-29T14:34:57;14.83;;;8.37;;
17510;SDS011;8873;48.818;9.422;2023-01-29T14:37:27;20.60;;;9.23;;
17510;SDS011;8873;48.818;9.422;2023-01-29T14:39:57;13.83;;;8.40;;
17510;SDS011;8873;48.818;9.422;2023-01-29T14:42:26;14.30;;;8.20;;
17510;SDS011;8873;48.818;9.422;2023-01-29T14:44:56;17.10;;;8.87;;
17510;SDS011;8873;48.818;9.422;2023-01-29T14:52:59;18.43;;;9.40;;
17510;SDS011;8873;48.818;9.422;2023-01-29T14:55:28;19.27;;;10.00;;
17510;SDS011;8873;48.818;9.422;2023-01-29T14:57:56;23.07;;;10.97;;
17510;SDS011;8873;48.818;9.422;2023-01-29T15:00:25;24.43;;;11.60;;
17510;SDS011;8873;48.818;9.422;2023-01-29T15:02:54;21.47;;;11.03;;
17510;SDS011;8873;48.818;9.422;2023-01-29T15:05:28;24.90;;;10.50;;
17510;SDS011;8873;48.818;9.422;2023-01-29T15:07:59;26.70;;;10.50;;
17510;SDS011;8873;48.818;9.422;2023-01-29T15:10:31;25.07;;;10.50;;
17510;SDS011;8873;48.818;9.422;2023-01-29T15:13:03;18.50;;;9.40;;
17510;SDS011;8873;48.818;9.422;2023-01-29T15:15:35;17.57;;;9.73;;
17510;SDS011;8873;48.818;9.422;2023-01-29T15:18:04;17.52;;;9.85;;
17510;SDS011;8873;48.818;9.422;2023-01-29T15:20:34;19.47;;;10.73;;
17510;SDS011;8873;48.818;9.422;2023-01-29T15:23:03;24.23;;;11.40;;
17510;SDS011;8873;48.818;9.422;2023-01-29T15:25:49;17.73;;;9.83;;
17510;SDS011;8873;48.818;9.422;2023-01-29T15:28:17;17.37;;;9.57;;
17510;SDS011;8873;48.818;9.422;2023-01-29T15:30:45;17.67;;;9.30;;